createdAt,value
2019-05-09T00:02:43.607Z,1.03
2019-05-09T00:05:13.241Z,1.00
2019-05-09T00:07:41.075Z,1.10
2019-05-09T00:10:08.939Z,1.00
2019-05-09T00:12:36.662Z,1.20
2019-05-09T00:15:04.675Z,0.90
2019-05-09T00:17:33.736Z,1.00
2019-05-09T00:20:07.663Z,1.00
2019-05-09T00:22:35.321Z,1.23
2019-05-09T00:25:03.372Z,0.97
2019-05-09T00:27:33.107Z,0.80
2019-05-09T00:30:00.468Z,1.17
2019-05-09T00:32:39.031Z,0.90
2019-05-09T00:35:33.794Z,1.00
2019-05-09T00:38:05.553Z,1.23
2019-05-09T00:40:34.171Z,0.80
2019-05-09T00:43:03.935Z,1.77
2019-05-09T00:46:06.296Z,1.30
2019-05-09T00:48:53.515Z,1.30
2019-05-09T00:51:23.332Z,1.10
2019-05-09T00:53:50.970Z,1.10
2019-05-09T00:56:18.999Z,1.20
2019-05-09T00:58:47.188Z,1.30
2019-05-09T01:01:14.882Z,1.57
2019-05-09T01:03:43.246Z,1.20
2019-05-09T01:06:13.224Z,1.13
2019-05-09T01:08:40.501Z,1.20
2019-05-09T01:11:12.050Z,1.10
2019-05-09T01:13:37.826Z,1.50
2019-05-09T01:16:05.600Z,1.30
2019-05-09T01:18:33.846Z,1.60
2019-05-09T01:21:03.701Z,1.37
2019-05-09T01:23:34.027Z,1.50
2019-05-09T01:26:03.627Z,1.30
2019-05-09T01:28:31.018Z,1.57
2019-05-09T01:30:58.809Z,1.50
2019-05-09T01:33:43.917Z,1.77
2019-05-09T01:36:11.668Z,1.20
2019-05-09T01:38:39.525Z,2.23
2019-05-09T01:41:07.434Z,1.53
2019-05-09T01:43:35.221Z,1.33
2019-05-09T01:46:03.832Z,1.30
2019-05-09T01:48:33.917Z,1.60
2019-05-09T01:51:03.081Z,1.40
2019-05-09T01:53:34.049Z,1.90
2019-05-09T01:56:03.642Z,1.60
2019-05-09T01:58:34.225Z,1.40
2019-05-09T02:01:03.694Z,2.10
2019-05-09T02:03:33.476Z,1.90
2019-05-09T02:06:03.247Z,1.67
2019-05-09T02:08:30.836Z,1.90
2019-05-09T02:10:59.068Z,1.87
2019-05-09T02:13:26.636Z,1.80
2019-05-09T02:16:14.245Z,1.80
2019-05-09T02:19:07.164Z,2.30
2019-05-09T02:21:34.965Z,1.70
2019-05-09T02:24:03.317Z,2.37
2019-05-09T02:26:33.331Z,2.00
2019-05-09T02:29:00.586Z,2.10
2019-05-09T02:31:28.289Z,1.50
2019-05-09T02:33:55.937Z,2.17
2019-05-09T02:36:23.654Z,1.80
2019-05-09T02:38:51.405Z,1.53
2019-05-09T02:41:19.999Z,1.67
2019-05-09T02:43:49.660Z,1.80
2019-05-09T02:46:42.315Z,1.80
2019-05-09T02:49:09.893Z,2.33
2019-05-09T02:51:38.694Z,2.07
2019-05-09T02:54:09.801Z,2.03
2019-05-09T02:56:38.533Z,1.90
2019-05-09T02:59:21.848Z,1.70
2019-05-09T03:02:19.590Z,1.70
2019-05-09T03:04:48.914Z,1.70
2019-05-09T03:07:18.883Z,2.40
2019-05-09T03:09:48.005Z,2.43
2019-05-09T03:12:26.529Z,2.33
2019-05-09T03:14:45.055Z,1.63
2019-05-09T03:17:12.672Z,2.00
2019-05-09T03:19:40.285Z,2.20
2019-05-09T03:22:14.074Z,1.90
2019-05-09T03:24:41.707Z,3.73
2019-05-09T03:27:18.487Z,3.97
2019-05-09T03:29:49.120Z,5.33
2019-05-09T03:32:19.472Z,3.93
2019-05-09T03:34:47.785Z,4.10
2019-05-09T03:37:17.459Z,3.00
2019-05-09T03:39:44.926Z,3.30
2019-05-09T03:42:12.507Z,2.90
2019-05-09T03:44:40.493Z,2.47
2019-05-09T03:47:31.626Z,2.53
2019-05-09T03:50:17.677Z,2.97
2019-05-09T03:52:47.597Z,2.83
2019-05-09T03:55:18.398Z,1.83
2019-05-09T03:57:52.117Z,1.77
2019-05-09T04:00:19.848Z,1.30
2019-05-09T04:02:47.570Z,1.60
2019-05-09T04:05:15.238Z,1.70
2019-05-09T04:07:42.835Z,1.97
2019-05-09T04:10:10.659Z,1.63
2019-05-09T04:12:52.875Z,2.13
2019-05-09T04:15:08.506Z,2.50
2019-05-09T04:17:42.984Z,2.13
2019-05-09T04:20:11.818Z,3.00
2019-05-09T04:22:39.384Z,3.30
2019-05-09T04:25:08.026Z,2.23
2019-05-09T04:27:37.447Z,3.30
2019-05-09T04:30:07.260Z,4.07
2019-05-09T04:32:35.037Z,3.43
2019-05-09T04:35:02.980Z,4.00
2019-05-09T04:37:31.150Z,3.20
2019-05-09T04:40:03.147Z,3.10
2019-05-09T04:42:28.380Z,2.90
2019-05-09T04:45:10.203Z,2.57
2019-05-09T04:47:39.434Z,1.83
2019-05-09T04:50:07.687Z,1.97
2019-05-09T04:52:35.391Z,1.90
2019-05-09T04:55:03.231Z,2.13
2019-05-09T04:57:30.838Z,2.00
2019-05-09T04:59:58.387Z,1.93
2019-05-09T05:02:42.161Z,2.00
2019-05-09T05:05:10.193Z,1.87
2019-05-09T05:07:38.356Z,1.60
2019-05-09T05:10:14.678Z,2.10
2019-05-09T05:12:49.558Z,1.83
2019-05-09T05:15:27.643Z,1.53
2019-05-09T05:17:58.294Z,1.50
2019-05-09T05:20:30.727Z,1.30
2019-05-09T05:23:05.407Z,1.83
2019-05-09T05:25:38.134Z,1.40
2019-05-09T05:28:08.478Z,1.53
2019-05-09T05:30:37.396Z,1.37
2019-05-09T05:33:27.813Z,1.47
2019-05-09T05:36:38.236Z,1.40
2019-05-09T05:39:07.925Z,1.20
2019-05-09T05:41:39.326Z,1.60
2019-05-09T05:44:14.569Z,3.40
2019-05-09T05:47:18.056Z,6.10
2019-05-09T05:53:03.126Z,3.53
2019-05-09T05:55:33.021Z,4.10
2019-05-09T05:58:02.733Z,1.73
2019-05-09T06:00:32.211Z,1.33
2019-05-09T06:03:08.777Z,1.63
2019-05-09T06:05:41.620Z,2.20
2019-05-09T06:08:39.806Z,1.30
2019-05-09T06:18:07.963Z,1.20
2019-05-09T06:20:48.664Z,1.57
2019-05-09T06:23:42.182Z,2.27
2019-05-09T06:26:32.108Z,5.10
2019-05-09T06:29:00.419Z,4.03
2019-05-09T06:31:28.651Z,3.50
2019-05-09T06:33:57.832Z,4.23
2019-05-09T06:36:28.354Z,2.10
2019-05-09T06:39:08.403Z,1.03
2019-05-09T06:41:38.593Z,0.93
2019-05-09T06:44:32.391Z,0.93
2019-05-09T06:47:24.451Z,0.93
2019-05-09T06:50:03.505Z,1.23
2019-05-09T06:52:31.636Z,1.80
2019-05-09T06:55:00.137Z,1.40
2019-05-09T06:57:28.326Z,1.87
2019-05-09T06:59:57.907Z,2.50
2019-05-09T07:02:40.393Z,1.23
2019-05-09T07:05:14.754Z,1.50
2019-05-09T07:08:04.897Z,1.30
2019-05-09T07:10:32.765Z,1.23
2019-05-09T07:13:00.699Z,0.90
2019-05-09T07:15:28.628Z,1.20
2019-05-09T07:17:57.508Z,1.37
2019-05-09T07:20:28.467Z,1.20
2019-05-09T07:22:58.254Z,1.30
2019-05-09T07:25:48.470Z,1.30
2019-05-09T07:28:17.991Z,0.80
2019-05-09T07:31:11.671Z,0.90
2019-05-09T07:33:58.717Z,0.90
2019-05-09T07:36:48.929Z,0.83
2019-05-09T07:39:23.111Z,1.10
2019-05-09T07:41:58.281Z,1.00
2019-05-09T07:44:29.879Z,0.70
2019-05-09T07:47:00.063Z,0.90
2019-05-09T07:49:37.575Z,0.53
2019-05-09T07:52:10.686Z,0.80
2019-05-09T07:54:38.878Z,0.50
2019-05-09T07:57:18.168Z,0.70
2019-05-09T07:59:50.248Z,0.80
2019-05-09T08:02:28.213Z,0.80
2019-05-09T08:05:03.304Z,0.60
2019-05-09T08:07:48.436Z,0.90
2019-05-09T08:10:17.445Z,0.73
2019-05-09T08:13:08.295Z,1.10
2019-05-09T08:15:38.424Z,0.50
2019-05-09T08:18:42.897Z,0.50
2019-05-09T08:21:20.990Z,1.00
2019-05-09T08:23:49.595Z,0.63
2019-05-09T08:26:18.995Z,0.60
2019-05-09T08:28:48.032Z,0.70
2019-05-09T08:31:17.820Z,0.90
2019-05-09T08:33:48.492Z,0.80
2019-05-09T08:36:18.034Z,0.80
2019-05-09T08:38:47.760Z,0.50
2019-05-09T08:41:18.400Z,0.70
2019-05-09T08:43:44.989Z,0.50
2019-05-09T08:46:18.239Z,0.63
2019-05-09T08:48:48.420Z,0.60
2019-05-09T08:51:50.871Z,0.60
2019-05-09T08:54:10.377Z,0.50
2019-05-09T08:56:38.841Z,1.30
2019-05-09T08:59:14.803Z,0.70
2019-05-09T09:02:07.806Z,0.90
2019-05-09T09:04:24.749Z,0.90
2019-05-09T09:06:57.620Z,0.60
2019-05-09T09:09:34.010Z,0.80
2019-05-09T09:12:21.051Z,1.07
2019-05-09T09:14:41.335Z,0.87
2019-05-09T09:17:14.740Z,0.60
2019-05-09T09:19:48.415Z,0.60
2019-05-09T09:22:17.985Z,0.57
2019-05-09T09:24:48.169Z,0.70
2019-05-09T09:27:20.101Z,0.70
2019-05-09T09:30:24.860Z,1.10
2019-05-09T09:32:58.656Z,1.00
2019-05-09T09:35:27.775Z,1.20
2019-05-09T09:38:00.510Z,0.90
2019-05-09T09:40:28.606Z,0.80
2019-05-09T09:42:58.169Z,1.03
2019-05-09T09:45:28.234Z,0.93
2019-05-09T09:48:04.015Z,0.80
2019-05-09T09:50:31.725Z,1.10
2019-05-09T09:53:02.783Z,1.30
2019-05-09T09:55:30.632Z,1.17
2019-05-09T09:58:12.735Z,1.47
2019-05-09T10:00:50.039Z,0.90
2019-05-09T10:03:18.801Z,0.70
2019-05-09T10:05:52.956Z,1.00
2019-05-09T10:08:20.839Z,1.10
2019-05-09T10:10:48.862Z,0.83
2019-05-09T10:13:18.618Z,0.80
2019-05-09T10:15:53.497Z,0.90
2019-05-09T10:18:39.657Z,0.97
2019-05-09T10:21:17.398Z,0.70
2019-05-09T10:23:45.348Z,0.60
2019-05-09T10:26:13.481Z,0.50
2019-05-09T10:28:45.273Z,0.60
2019-05-09T10:31:11.093Z,0.60
2019-05-09T10:33:39.242Z,0.60
2019-05-09T10:36:08.497Z,1.13
2019-05-09T10:38:38.661Z,1.00
2019-05-09T10:41:10.958Z,1.00
2019-05-09T10:43:57.857Z,0.63
2019-05-09T10:46:51.558Z,0.73
2019-05-09T10:49:08.395Z,0.47
2019-05-09T10:51:36.236Z,0.70
2019-05-09T10:54:04.507Z,0.60
2019-05-09T10:56:32.147Z,0.53
2019-05-09T10:59:00.170Z,0.40
2019-05-09T11:01:29.495Z,0.40
2019-05-09T11:04:03.321Z,0.70
2019-05-09T11:06:32.771Z,0.50
2019-05-09T11:09:30.969Z,0.60
2019-05-09T11:12:12.239Z,0.67
2019-05-09T11:14:58.625Z,0.40
2019-05-09T11:17:28.704Z,0.60
2019-05-09T11:19:58.717Z,0.43
2019-05-09T11:22:31.987Z,0.60
2019-05-09T11:24:59.935Z,0.60
2019-05-09T11:27:29.199Z,0.50
2019-05-09T11:29:57.976Z,0.40
2019-05-09T11:32:27.678Z,0.60
2019-05-09T11:34:58.949Z,0.70
2019-05-09T11:37:29.087Z,0.40
2019-05-09T11:39:57.977Z,0.57
2019-05-09T11:42:28.573Z,0.40
2019-05-09T11:44:58.025Z,0.50
2019-05-09T11:47:33.686Z,0.40
2019-05-09T11:49:57.833Z,0.60
2019-05-09T11:52:25.642Z,0.47
2019-05-09T11:54:53.604Z,0.50
2019-05-09T11:57:21.561Z,0.40
2019-05-09T11:59:49.276Z,0.40
2019-05-09T12:02:20.064Z,0.50
2019-05-09T12:04:48.725Z,0.80
2019-05-09T12:07:18.010Z,0.60
2019-05-09T12:09:48.934Z,0.67
2019-05-09T12:12:19.301Z,0.60
2019-05-09T12:14:48.376Z,0.43
2019-05-09T12:17:19.289Z,0.50
2019-05-09T12:19:48.796Z,0.50
2019-05-09T12:22:18.886Z,0.50
2019-05-09T12:24:53.815Z,0.60
2019-05-09T12:27:23.369Z,0.60
2019-05-09T12:29:51.191Z,0.40
2019-05-09T12:32:19.435Z,0.90
2019-05-09T12:34:48.013Z,0.63
2019-05-09T12:37:18.016Z,0.70
2019-05-09T12:39:47.832Z,1.07
2019-05-09T12:42:18.274Z,0.40
2019-05-09T12:44:45.347Z,0.40
2019-05-09T12:47:13.285Z,0.50
2019-05-09T12:49:41.485Z,0.40
2019-05-09T12:52:10.101Z,0.40
2019-05-09T12:54:38.658Z,0.50
2019-05-09T12:57:08.081Z,0.53
2019-05-09T12:59:48.247Z,0.60
2019-05-09T13:02:05.545Z,0.50
2019-05-09T13:04:38.199Z,0.40
2019-05-09T13:07:08.399Z,0.53
2019-05-09T13:09:42.715Z,0.50
2019-05-09T13:12:12.002Z,0.43
2019-05-09T13:14:39.801Z,0.60
2019-05-09T13:17:14.189Z,0.80
2019-05-09T13:19:48.004Z,0.50
2019-05-09T13:22:18.199Z,0.80
2019-05-09T13:24:47.505Z,0.80
2019-05-09T13:27:15.074Z,0.50
2019-05-09T13:29:43.346Z,0.40
2019-05-09T13:32:11.228Z,0.50
2019-05-09T13:34:38.928Z,0.60
2019-05-09T13:37:09.165Z,0.57
2019-05-09T13:39:36.626Z,0.50
2019-05-09T13:42:09.204Z,0.67
2019-05-09T13:44:41.228Z,1.20
2019-05-09T13:47:10.972Z,0.60
2019-05-09T13:49:39.595Z,1.90
2019-05-09T13:52:09.928Z,0.50
2019-05-09T13:54:38.285Z,0.63
2019-05-09T13:57:08.531Z,0.40
2019-05-09T13:59:37.417Z,0.40
2019-05-09T14:02:05.569Z,0.50
2019-05-09T14:04:33.203Z,0.60
2019-05-09T14:07:00.863Z,0.50
2019-05-09T14:09:29.344Z,0.50
2019-05-09T14:11:59.366Z,0.53
2019-05-09T14:14:28.147Z,0.80
2019-05-09T14:16:55.978Z,0.67
2019-05-09T14:19:31.211Z,0.50
2019-05-09T14:21:53.317Z,0.80
2019-05-09T14:24:20.989Z,0.73
2019-05-09T14:26:48.704Z,0.60
2019-05-09T14:29:20.557Z,1.20
2019-05-09T14:31:47.309Z,0.70
2019-05-09T14:34:15.018Z,0.90
2019-05-09T14:36:45.558Z,0.80
2019-05-09T14:39:14.998Z,4.70
2019-05-09T14:41:42.826Z,1.03
2019-05-09T14:44:12.364Z,1.00
2019-05-09T14:46:40.260Z,1.30
2019-05-09T14:49:08.155Z,0.90
2019-05-09T14:51:38.123Z,0.97
2019-05-09T14:54:08.058Z,0.90
2019-05-09T14:56:35.154Z,1.00
2019-05-09T14:59:18.471Z,0.77
2019-05-09T15:01:46.221Z,0.80
2019-05-09T15:04:19.019Z,0.77
2019-05-09T15:06:50.525Z,0.50
2019-05-09T15:09:23.762Z,0.50
2019-05-09T15:11:59.449Z,0.70
2019-05-09T15:14:32.606Z,0.93
2019-05-09T15:17:00.437Z,0.70
2019-05-09T15:19:33.472Z,0.70
2019-05-09T15:22:04.895Z,0.60
2019-05-09T15:24:38.829Z,0.70
2019-05-09T15:27:07.033Z,0.87
2019-05-09T15:29:38.880Z,0.60
2019-05-09T15:32:21.489Z,0.50
2019-05-09T15:34:50.267Z,0.70
2019-05-09T15:37:18.834Z,0.73
2019-05-09T15:39:48.439Z,0.87
2019-05-09T15:42:18.270Z,0.67
2019-05-09T15:44:47.731Z,0.83
2019-05-09T15:47:21.762Z,0.80
2019-05-09T15:49:49.666Z,1.20
2019-05-09T15:52:20.611Z,0.80
2019-05-09T15:54:48.366Z,0.90
2019-05-09T15:57:17.637Z,0.80
2019-05-09T15:59:47.781Z,1.10
2019-05-09T16:02:15.322Z,0.87
2019-05-09T16:04:43.727Z,0.70
2019-05-09T16:07:13.187Z,0.80
2019-05-09T16:09:40.792Z,0.60
2019-05-09T16:12:08.873Z,0.60
2019-05-09T16:14:38.134Z,0.83
2019-05-09T16:17:07.879Z,0.60
2019-05-09T16:19:37.645Z,0.83
2019-05-09T16:22:05.158Z,0.70
2019-05-09T16:28:21.426Z,0.50
2019-05-09T16:30:49.055Z,0.50
2019-05-09T16:33:34.827Z,0.60
2019-05-09T16:36:06.310Z,0.50
2019-05-09T16:38:45.806Z,0.30
2019-05-09T16:41:08.873Z,0.40
2019-05-09T16:43:39.678Z,0.60
2019-05-09T16:46:10.042Z,0.70
2019-05-09T16:48:40.179Z,0.60
2019-05-09T16:51:07.990Z,0.50
2019-05-09T16:53:36.164Z,0.40
2019-05-09T16:56:04.132Z,0.50
2019-05-09T16:58:32.101Z,0.57
2019-05-09T17:01:02.966Z,0.60
2019-05-09T17:03:33.286Z,0.60
2019-05-09T17:06:01.603Z,0.50
2019-05-09T17:08:29.285Z,0.70
2019-05-09T17:10:58.709Z,0.97
2019-05-09T17:13:28.840Z,0.60
2019-05-09T17:15:56.973Z,0.60
2019-05-09T17:19:28.188Z,0.47
2019-05-09T17:22:14.017Z,0.50
2019-05-09T17:24:43.024Z,0.50
2019-05-09T17:27:10.739Z,0.50
2019-05-09T17:29:39.015Z,0.70
2019-05-09T17:32:07.744Z,0.50
2019-05-09T17:35:14.331Z,0.70
2019-05-09T17:41:43.841Z,0.87
2019-05-09T17:45:20.339Z,0.80
2019-05-09T17:52:02.033Z,0.60
2019-05-09T17:54:25.215Z,0.60
2019-05-09T17:57:01.041Z,0.90
2019-05-09T18:02:48.583Z,0.97
2019-05-09T18:05:20.199Z,0.70
2019-05-09T18:07:48.619Z,0.60
2019-05-09T18:14:38.701Z,0.80
2019-05-09T18:29:01.730Z,0.60
2019-05-09T18:31:58.363Z,1.30
2019-05-09T18:34:29.358Z,1.30
2019-05-09T18:40:31.810Z,1.00
2019-05-09T18:42:59.491Z,0.83
2019-05-09T18:45:31.773Z,0.80
2019-05-09T18:48:01.584Z,0.90
2019-05-09T18:50:30.995Z,1.30
2019-05-09T18:52:58.888Z,0.90
2019-05-09T18:55:31.068Z,0.87
2019-05-09T18:57:59.721Z,0.97
2019-05-09T19:00:28.199Z,1.60
2019-05-09T19:03:58.078Z,1.10
2019-05-09T19:06:53.530Z,0.90
2019-05-09T19:09:32.715Z,1.77
2019-05-09T19:12:02.042Z,1.47
2019-05-09T19:14:30.412Z,0.90
2019-05-09T19:17:48.101Z,0.87
2019-05-09T19:20:28.323Z,0.90
2019-05-09T19:23:18.651Z,1.00
2019-05-09T19:26:30.839Z,1.27
2019-05-09T19:29:09.477Z,0.90
2019-05-09T19:31:42.575Z,1.30
2019-05-09T19:34:17.525Z,1.07
2019-05-09T19:36:48.878Z,1.50
2019-05-09T19:39:20.560Z,1.40
2019-05-09T19:41:48.840Z,1.00
2019-05-09T19:44:19.560Z,1.43
2019-05-09T19:46:56.820Z,0.80
2019-05-09T19:49:27.236Z,1.03
2019-05-09T19:51:56.428Z,1.00
2019-05-09T19:54:26.979Z,0.83
2019-05-09T19:56:55.031Z,1.10
2019-05-09T19:59:22.775Z,0.90
2019-05-09T20:01:50.402Z,0.93
2019-05-09T20:04:18.395Z,0.83
2019-05-09T20:06:46.492Z,0.80
2019-05-09T20:09:23.496Z,0.70
2019-05-09T20:12:13.338Z,0.63
2019-05-09T20:14:43.615Z,0.97
2019-05-09T20:17:11.171Z,1.03
2019-05-09T20:19:38.858Z,1.03
2019-05-09T20:22:06.399Z,1.10
2019-05-09T20:24:34.253Z,0.90
2019-05-09T20:27:01.779Z,1.10
2019-05-09T20:29:30.414Z,0.90
2019-05-09T20:31:58.154Z,1.13
2019-05-09T20:34:25.677Z,0.80
2019-05-09T20:36:53.337Z,0.90
2019-05-09T20:39:21.705Z,0.80
2019-05-09T20:41:49.684Z,1.00
2019-05-09T20:44:18.098Z,0.73
2019-05-09T20:46:45.671Z,1.00
2019-05-09T20:49:13.278Z,0.83
2019-05-09T20:51:40.876Z,0.90
2019-05-09T20:54:20.634Z,1.20
2019-05-09T20:56:39.073Z,0.80
2019-05-09T20:59:07.712Z,0.83
2019-05-09T21:01:35.590Z,0.87
2019-05-09T21:04:03.400Z,1.63
2019-05-09T21:06:30.942Z,0.83
2019-05-09T21:08:58.587Z,1.00
2019-05-09T21:11:26.135Z,0.77
2019-05-09T21:13:53.687Z,0.93
2019-05-09T21:16:21.286Z,1.10
2019-05-09T21:18:48.867Z,0.93
2019-05-09T21:21:16.706Z,1.03
2019-05-09T21:23:44.303Z,1.17
2019-05-09T21:26:11.904Z,1.00
2019-05-09T21:28:39.453Z,0.93
2019-05-09T21:31:07.060Z,1.17
2019-05-09T21:33:34.613Z,1.00
2019-05-09T21:36:02.238Z,1.17
2019-05-09T21:38:29.722Z,1.17
2019-05-09T21:40:57.382Z,1.23
2019-05-09T21:43:24.945Z,1.30
2019-05-09T21:45:52.531Z,1.00
2019-05-09T21:48:20.198Z,1.10
2019-05-09T21:50:47.724Z,0.90
2019-05-09T21:53:15.759Z,1.53
2019-05-09T21:55:44.329Z,1.00
2019-05-09T21:58:12.012Z,0.90
2019-05-09T22:00:41.811Z,1.00
2019-05-09T22:03:09.467Z,1.17
2019-05-09T22:05:37.398Z,0.80
2019-05-09T22:08:05.177Z,0.90
2019-05-09T22:10:32.869Z,0.73
2019-05-09T22:13:00.726Z,0.80
2019-05-09T22:15:28.578Z,1.10
2019-05-09T22:17:56.194Z,0.90
2019-05-09T22:20:23.936Z,0.93
2019-05-09T22:22:51.881Z,0.93
2019-05-09T22:25:19.387Z,1.10
2019-05-09T22:27:46.914Z,0.60
2019-05-09T22:30:15.347Z,0.97
2019-05-09T22:32:42.868Z,1.10
2019-05-09T22:35:12.465Z,1.00
2019-05-09T22:37:40.072Z,0.90
2019-05-09T22:40:08.538Z,1.20
2019-05-09T22:42:36.260Z,1.33
2019-05-09T22:45:04.124Z,0.70
2019-05-09T22:47:31.671Z,1.00
2019-05-09T22:49:59.447Z,0.73
2019-05-09T22:52:27.038Z,0.90
2019-05-09T22:54:54.680Z,0.70
2019-05-09T22:57:22.264Z,0.80
2019-05-09T22:59:49.851Z,0.63
2019-05-09T23:02:17.963Z,1.10
2019-05-09T23:04:45.582Z,1.00
2019-05-09T23:07:13.211Z,0.90
2019-05-09T23:09:40.775Z,0.60
2019-05-09T23:12:08.720Z,0.83
2019-05-09T23:14:36.684Z,0.80
2019-05-09T23:17:04.403Z,0.90
2019-05-09T23:19:31.980Z,1.50
2019-05-09T23:21:59.601Z,0.90
2019-05-09T23:24:29.898Z,0.67
2019-05-09T23:26:57.459Z,1.00
2019-05-09T23:29:25.349Z,1.00
2019-05-09T23:32:13.756Z,1.00
2019-05-09T23:34:41.295Z,0.90
2019-05-09T23:37:08.978Z,0.70
2019-05-09T23:39:42.875Z,0.60
2019-05-09T23:42:10.859Z,0.90
2019-05-09T23:44:38.496Z,0.80
2019-05-09T23:47:06.019Z,1.00
2019-05-09T23:49:33.587Z,0.90
2019-05-09T23:52:01.212Z,1.00
2019-05-09T23:54:47.840Z,1.70
2019-05-09T23:57:33.977Z,0.73
